sensor_id;sensor_type;location;lat;lon;timestamp;P1;durP1;ratioP1;P2;durP2;ratioP2
75112;SDS011;63692;47.338;8.520;2023-04-24T04:14:14;0.30;;;0.10;;
75112;SDS011;63692;47.338;8.520;2023-04-24T04:16:39;0.77;;;0.20;;
75112;SDS011;63692;47.338;8.520;2023-04-24T04:19:05;1.67;;;0.30;;
75112;SDS011;63692;47.338;8.520;2023-04-24T04:21:30;1.30;;;0.20;;
75112;SDS011;63692;47.338;8.520;2023-04-24T04:26:24;0.70;;;0.20;;
75112;SDS011;63692;47.338;8.520;2023-04-24T04:28:51;0.50;;;0.20;;
75112;SDS011;63692;47.338;8.520;2023-04-24T04:31:16;1.52;;;0.17;;
75112;SDS011;63692;47.338;8.520;2023-04-24T04:33:42;0.82;;;0.30;;
75112;SDS011;63692;47.338;8.520;2023-04-24T04:36:08;0.70;;;0.15;;
75112;SDS011;63692;47.338;8.520;2023-04-24T04:38:46;0.90;;;0.25;;
75112;SDS011;63692;47.338;8.520;2023-04-24T04:41:11;1.83;;;0.30;;
75112;SDS011;63692;47.338;8.520;2023-04-24T04:43:37;1.40;;;0.40;;
75112;SDS011;63692;47.338;8.520;2023-04-24T04:46:04;0.80;;;0.20;;
75112;SDS011;63692;47.338;8.520;2023-04-24T04:48:30;0.38;;;0.10;;
75112;SDS011;63692;47.338;8.520;2023-04-24T04:50:56;1.00;;;0.22;;
75112;SDS011;63692;47.338;8.520;2023-04-24T04:53:22;1.23;;;0.20;;
75112;SDS011;63692;47.338;8.520;2023-04-24T04:55:49;0.32;;;0.13;;
75112;SDS011;63692;47.338;8.520;2023-04-24T04:58:14;0.47;;;0.15;;
75112;SDS011;63692;47.338;8.520;2023-04-24T05:00:40;1.15;;;0.40;;
75112;SDS011;63692;47.338;8.520;2023-04-24T05:03:06;2.28;;;0.40;;
75112;SDS011;63692;47.338;8.520;2023-04-24T05:07:59;2.05;;;0.30;;
75112;SDS011;63692;47.338;8.520;2023-04-24T05:10:24;0.73;;;0.30;;
75112;SDS011;63692;47.338;8.520;2023-04-24T05:12:50;1.48;;;0.38;;
75112;SDS011;63692;47.338;8.520;2023-04-24T05:15:16;4.55;;;0.52;;
75112;SDS011;63692;47.338;8.520;2023-04-24T05:17:41;1.90;;;0.50;;
75112;SDS011;63692;47.338;8.520;2023-04-24T05:20:07;1.40;;;0.30;;
75112;SDS011;63692;47.338;8.520;2023-04-24T05:22:34;4.30;;;1.20;;
75112;SDS011;63692;47.338;8.520;2023-04-24T05:25:01;8.43;;;1.67;;
75112;SDS011;63692;47.338;8.520;2023-04-24T05:27:27;4.22;;;0.70;;
75112;SDS011;63692;47.338;8.520;2023-04-24T05:32:20;5.43;;;0.80;;
75112;SDS011;63692;47.338;8.520;2023-04-24T05:34:46;2.13;;;0.60;;
75112;SDS011;63692;47.338;8.520;2023-04-24T05:37:14;2.65;;;0.55;;
75112;SDS011;63692;47.338;8.520;2023-04-24T05:39:40;2.88;;;0.60;;
75112;SDS011;63692;47.338;8.520;2023-04-24T05:42:06;2.47;;;0.50;;
75112;SDS011;63692;47.338;8.520;2023-04-24T05:44:32;4.32;;;0.65;;
75112;SDS011;63692;47.338;8.520;2023-04-24T05:46:57;3.58;;;0.50;;
75112;SDS011;63692;47.338;8.520;2023-04-24T05:49:23;3.80;;;0.80;;
75112;SDS011;63692;47.338;8.520;2023-04-24T05:51:49;4.20;;;1.02;;
75112;SDS011;63692;47.338;8.520;2023-04-24T05:54:14;1.88;;;0.60;;
75112;SDS011;63692;47.338;8.520;2023-04-24T05:56:40;1.88;;;0.43;;
75112;SDS011;63692;47.338;8.520;2023-04-24T05:59:05;1.70;;;0.50;;
75112;SDS011;63692;47.338;8.520;2023-04-24T06:01:31;4.07;;;0.88;;
75112;SDS011;63692;47.338;8.520;2023-04-24T06:03:57;2.47;;;0.70;;
75112;SDS011;63692;47.338;8.520;2023-04-24T06:06:23;2.38;;;0.50;;
75112;SDS011;63692;47.338;8.520;2023-04-24T06:08:49;3.40;;;0.55;;
75112;SDS011;63692;47.338;8.520;2023-04-24T06:11:14;3.35;;;0.55;;
75112;SDS011;63692;47.338;8.520;2023-04-24T06:13:40;2.97;;;0.47;;
75112;SDS011;63692;47.338;8.520;2023-04-24T06:16:06;2.33;;;0.75;;
75112;SDS011;63692;47.338;8.520;2023-04-24T06:18:31;3.55;;;0.43;;
75112;SDS011;63692;47.338;8.520;2023-04-24T06:20:57;2.00;;;0.50;;
75112;SDS011;63692;47.338;8.520;2023-04-24T06:23:23;4.28;;;0.57;;
75112;SDS011;63692;47.338;8.520;2023-04-24T06:25:48;2.80;;;0.50;;
75112;SDS011;63692;47.338;8.520;2023-04-24T06:28:15;3.65;;;0.70;;
75112;SDS011;63692;47.338;8.520;2023-04-24T06:30:40;2.13;;;0.60;;
75112;SDS011;63692;47.338;8.520;2023-04-24T06:33:06;3.72;;;0.60;;
75112;SDS011;63692;47.338;8.520;2023-04-24T06:35:32;2.33;;;0.40;;
75112;SDS011;63692;47.338;8.520;2023-04-24T06:37:57;3.50;;;0.65;;
75112;SDS011;63692;47.338;8.520;2023-04-24T06:40:23;3.72;;;0.50;;
75112;SDS011;63692;47.338;8.520;2023-04-24T06:42:49;1.65;;;0.50;;
75112;SDS011;63692;47.338;8.520;2023-04-24T06:45:15;2.22;;;0.43;;
75112;SDS011;63692;47.338;8.520;2023-04-24T06:47:40;1.75;;;0.63;;
75112;SDS011;63692;47.338;8.520;2023-04-24T06:50:06;2.72;;;0.57;;
75112;SDS011;63692;47.338;8.520;2023-04-24T06:57:34;5.07;;;1.55;;
75112;SDS011;63692;47.338;8.520;2023-04-24T07:00:00;2.15;;;0.88;;
75112;SDS011;63692;47.338;8.520;2023-04-24T07:10:06;3.45;;;1.20;;
75112;SDS011;63692;47.338;8.520;2023-04-24T07:12:33;3.30;;;0.98;;
75112;SDS011;63692;47.338;8.520;2023-04-24T07:27:31;3.00;;;0.85;;
75112;SDS011;63692;47.338;8.520;2023-04-24T08:51:34;4.93;;;1.58;;
75112;SDS011;63692;47.338;8.520;2023-04-24T11:39:21;5.65;;;1.60;;
75112;SDS011;63692;47.338;8.520;2023-04-24T11:41:46;3.63;;;1.38;;
75112;SDS011;63692;47.338;8.520;2023-04-24T11:46:49;5.93;;;1.33;;
75112;SDS011;63692;47.338;8.520;2023-04-24T11:49:15;3.72;;;1.30;;
75112;SDS011;63692;47.338;8.520;2023-04-24T12:12:17;3.97;;;1.40;;
75112;SDS011;63692;47.338;8.520;2023-04-24T12:14:53;4.00;;;1.48;;
75112;SDS011;63692;47.338;8.520;2023-04-24T12:17:24;5.45;;;1.42;;
75112;SDS011;63692;47.338;8.520;2023-04-24T12:20:01;5.18;;;1.40;;
75112;SDS011;63692;47.338;8.520;2023-04-24T12:25:16;3.63;;;1.45;;
75112;SDS011;63692;47.338;8.520;2023-04-24T12:30:57;5.32;;;1.70;;
75112;SDS011;63692;47.338;8.520;2023-04-24T12:33:27;4.45;;;1.80;;
75112;SDS011;63692;47.338;8.520;2023-04-24T12:35:59;5.75;;;1.40;;
75112;SDS011;63692;47.338;8.520;2023-04-24T12:48:46;4.80;;;1.52;;
75112;SDS011;63692;47.338;8.520;2023-04-24T12:51:11;3.88;;;1.75;;
75112;SDS011;63692;47.338;8.520;2023-04-24T12:53:37;4.10;;;1.42;;
75112;SDS011;63692;47.338;8.520;2023-04-24T12:56:03;2.78;;;1.50;;
75112;SDS011;63692;47.338;8.520;2023-04-24T12:58:28;4.63;;;1.90;;
75112;SDS011;63692;47.338;8.520;2023-04-24T13:00:54;3.25;;;1.40;;
75112;SDS011;63692;47.338;8.520;2023-04-24T13:03:20;3.65;;;1.50;;
75112;SDS011;63692;47.338;8.520;2023-04-24T13:10:50;3.75;;;1.50;;
75112;SDS011;63692;47.338;8.520;2023-04-24T13:13:16;4.13;;;1.38;;
75112;SDS011;63692;47.338;8.520;2023-04-24T13:15:42;5.07;;;1.40;;
75112;SDS011;63692;47.338;8.520;2023-04-24T13:18:08;7.70;;;1.40;;
75112;SDS011;63692;47.338;8.520;2023-04-24T13:20:33;5.43;;;1.40;;
75112;SDS011;63692;47.338;8.520;2023-04-24T13:23:00;2.60;;;1.23;;
75112;SDS011;63692;47.338;8.520;2023-04-24T13:27:55;4.50;;;1.30;;
75112;SDS011;63692;47.338;8.520;2023-04-24T17:28:35;5.28;;;1.90;;
75112;SDS011;63692;47.338;8.520;2023-04-24T17:31:01;4.45;;;1.80;;
75112;SDS011;63692;47.338;8.520;2023-04-24T17:33:27;5.60;;;1.75;;
75112;SDS011;63692;47.338;8.520;2023-04-24T17:35:54;7.75;;;1.83;;
75112;SDS011;63692;47.338;8.520;2023-04-24T17:38:21;4.68;;;1.83;;
75112;SDS011;63692;47.338;8.520;2023-04-24T17:40:47;5.45;;;2.55;;
75112;SDS011;63692;47.338;8.520;2023-04-24T17:43:17;3.20;;;1.75;;
75112;SDS011;63692;47.338;8.520;2023-04-24T17:45:47;4.65;;;2.25;;
75112;SDS011;63692;47.338;8.520;2023-04-24T17:48:13;5.70;;;1.75;;
75112;SDS011;63692;47.338;8.520;2023-04-24T17:50:39;3.78;;;2.10;;
75112;SDS011;63692;47.338;8.520;2023-04-24T17:53:05;3.70;;;1.90;;
75112;SDS011;63692;47.338;8.520;2023-04-24T18:02:56;7.75;;;2.83;;
75112;SDS011;63692;47.338;8.520;2023-04-24T18:05:25;3.67;;;2.08;;
75112;SDS011;63692;47.338;8.520;2023-04-24T18:08:01;4.68;;;1.90;;
75112;SDS011;63692;47.338;8.520;2023-04-24T18:10:28;6.35;;;1.83;;
75112;SDS011;63692;47.338;8.520;2023-04-24T18:12:55;7.22;;;2.25;;
75112;SDS011;63692;47.338;8.520;2023-04-24T18:15:21;6.05;;;2.53;;
75112;SDS011;63692;47.338;8.520;2023-04-24T18:17:47;5.90;;;2.20;;
75112;SDS011;63692;47.338;8.520;2023-04-24T18:20:13;11.95;;;5.25;;
75112;SDS011;63692;47.338;8.520;2023-04-24T18:22:40;12.80;;;5.00;;
75112;SDS011;63692;47.338;8.520;2023-04-24T18:25:06;9.25;;;3.53;;
75112;SDS011;63692;47.338;8.520;2023-04-24T18:27:33;6.40;;;3.40;;
75112;SDS011;63692;47.338;8.520;2023-04-24T18:29:59;6.65;;;3.10;;
75112;SDS011;63692;47.338;8.520;2023-04-24T18:32:25;8.00;;;3.45;;
75112;SDS011;63692;47.338;8.520;2023-04-24T19:22:49;8.00;;;2.70;;
75112;SDS011;63692;47.338;8.520;2023-04-24T20:02:34;5.63;;;2.38;;
75112;SDS011;63692;47.338;8.520;2023-04-24T20:05:00;7.57;;;2.60;;
75112;SDS011;63692;47.338;8.520;2023-04-24T20:07:26;4.80;;;2.45;;
75112;SDS011;63692;47.338;8.520;2023-04-24T20:09:51;5.57;;;2.50;;
75112;SDS011;63692;47.338;8.520;2023-04-24T20:12:17;7.03;;;2.60;;
75112;SDS011;63692;47.338;8.520;2023-04-24T20:14:43;3.85;;;2.47;;
75112;SDS011;63692;47.338;8.520;2023-04-24T20:17:09;6.50;;;2.50;;
75112;SDS011;63692;47.338;8.520;2023-04-24T20:19:35;4.20;;;2.38;;
75112;SDS011;63692;47.338;8.520;2023-04-24T20:22:00;8.55;;;3.00;;
75112;SDS011;63692;47.338;8.520;2023-04-24T20:24:26;6.00;;;2.60;;
75112;SDS011;63692;47.338;8.520;2023-04-24T20:26:52;5.07;;;2.70;;
75112;SDS011;63692;47.338;8.520;2023-04-24T20:29:17;8.02;;;3.15;;
